Time;durP1;ratioP1;P1;durP2;ratioP2;P2;SDS_P1;SDS_P2;PMS_P1;PMS_P2;Temp;Humidity;BMP_temperature;BMP_pressure;BME280_temperature;BME280_humidity;BME280_pressure;Samples;Min_cycle;Max_cycle;Signal;HPM_P1;HPM_P2
2021/12/31 00:02:12;;;;;;;4.93;2.70;;;;;;;;;;5033035;28;20183;-65
2021/12/31 00:04:38;;;;;;;5.90;2.77;;;;;;;;;;5032970;28;20646;-65
2021/12/31 00:07:05;;;;;;;4.73;2.50;;;;;;;;;;5034217;28;20202;-65
2021/12/31 00:09:31;;;;;;;4.37;2.40;;;;;;;;;;5034494;28;20182;-65
2021/12/31 00:11:57;;;;;;;6.17;2.80;;;;;;;;;;5034451;28;20183;-65
2021/12/31 00:14:23;;;;;;;7.40;2.60;;;;;;;;;;5032795;28;20544;-65
2021/12/31 00:16:49;;;;;;;6.30;2.60;;;;;;;;;;5032521;28;20218;-65
2021/12/31 00:19:15;;;;;;;8.87;2.90;;;;;;;;;;5034399;28;20574;-66
2021/12/31 00:21:44;;;;;;;5.80;2.50;;;;;;;;;;5034234;28;20254;-65
2021/12/31 00:24:09;;;;;;;6.17;3.00;;;;;;;;;;5034012;28;20175;-65
2021/12/31 00:26:35;;;;;;;5.70;2.63;;;;;;;;;;5034424;28;20561;-65
2021/12/31 00:29:01;;;;;;;4.03;2.47;;;;;;;;;;5032763;28;20734;-65
2021/12/31 00:31:27;;;;;;;4.17;2.50;;;;;;;;;;5032615;28;20189;-65
2021/12/31 00:33:53;;;;;;;5.10;3.00;;;;;;;;;;5034008;28;20189;-65
2021/12/31 00:36:19;;;;;;;5.47;2.83;;;;;;;;;;5032392;28;20215;-64
2021/12/31 00:38:45;;;;;;;6.57;2.73;;;;;;;;;;5033714;28;20183;-65
2021/12/31 00:41:11;;;;;;;4.57;2.60;;;;;;;;;;5033839;28;20171;-65
2021/12/31 00:43:37;;;;;;;4.90;3.17;;;;;;;;;;5032329;28;20758;-65
2021/12/31 00:46:03;;;;;;;5.27;2.50;;;;;;;;;;5033438;28;20203;-65
2021/12/31 00:48:29;;;;;;;6.33;2.50;;;;;;;;;;5033870;28;20254;-64
2021/12/31 00:50:56;;;;;;;3.93;2.70;;;;;;;;;;5033572;28;20175;-65
2021/12/31 00:53:22;;;;;;;5.83;2.60;;;;;;;;;;5033610;28;20187;-64
2021/12/31 00:55:48;;;;;;;6.50;2.50;;;;;;;;;;5033304;28;20219;-65
2021/12/31 00:58:14;;;;;;;7.13;2.47;;;;;;;;;;5032184;28;20545;-65
2021/12/31 01:00:40;;;;;;;6.60;2.50;;;;;;;;;;5032124;28;20187;-66
2021/12/31 01:03:06;;;;;;;4.27;2.40;;;;;;;;;;5033735;28;20174;-65
2021/12/31 01:05:32;;;;;;;2.73;2.20;;;;;;;;;;5033212;28;20179;-65
2021/12/31 01:07:58;;;;;;;5.87;2.40;;;;;;;;;;5033330;28;20201;-65
2021/12/31 01:10:27;;;;;;;5.00;2.50;;;;;;;;;;5033586;28;20203;-65
2021/12/31 01:12:53;;;;;;;4.47;2.70;;;;;;;;;;5033549;28;20515;-65
2021/12/31 01:15:35;;;;;;;3.17;2.50;;;;;;;;;;5032906;28;20213;-64
2021/12/31 01:20:27;;;;;;;4.10;2.40;;;;;;;;;;5033468;28;20241;-65
2021/12/31 01:22:53;;;;;;;7.07;2.53;;;;;;;;;;5033303;28;20627;-64
2021/12/31 01:25:19;;;;;;;4.17;2.47;;;;;;;;;;5032790;28;20266;-65
2021/12/31 01:27:45;;;;;;;5.43;2.33;;;;;;;;;;5036167;28;20225;-65
2021/12/31 01:30:13;;;;;;;5.77;2.13;;;;;;;;;;5037401;28;20202;-65
2021/12/31 01:32:40;;;;;;;3.50;2.47;;;;;;;;;;5036096;28;20265;-65
2021/12/31 01:35:06;;;;;;;3.63;2.73;;;;;;;;;;5037446;28;20557;-65
2021/12/31 01:37:32;;;;;;;5.70;2.67;;;;;;;;;;5035861;28;20211;-65
2021/12/31 01:39:58;;;;;;;4.50;2.10;;;;;;;;;;5037208;28;20254;-65
2021/12/31 01:42:32;;;;;;;5.00;2.40;;;;;;;;;;5037211;28;20202;-65
2021/12/31 01:45:02;;;;;;;6.13;2.80;;;;;;;;;;5037448;28;20209;-65
2021/12/31 01:47:45;;;;;;;4.90;2.60;;;;;;;;;;5037394;28;20671;-65
2021/12/31 01:50:11;;;;;;;4.33;2.43;;;;;;;;;;5037329;28;20163;-65
2021/12/31 01:52:40;;;;;;;4.40;2.50;;;;;;;;;;5035786;28;20194;-65
2021/12/31 01:55:09;;;;;;;5.53;2.13;;;;;;;;;;5035782;28;20577;-65
2021/12/31 01:57:35;;;;;;;3.43;2.13;;;;;;;;;;5035574;28;20630;-65
2021/12/31 02:00:01;;;;;;;4.27;2.30;;;;;;;;;;5037123;28;20171;-65
2021/12/31 02:02:27;;;;;;;9.07;2.50;;;;;;;;;;5035621;28;20655;-65
2021/12/31 02:04:53;;;;;;;4.93;3.00;;;;;;;;;;5036768;28;20176;-65
2021/12/31 02:07:19;;;;;;;5.93;2.00;;;;;;;;;;5035340;28;20790;-65
2021/12/31 02:09:49;;;;;;;5.27;2.53;;;;;;;;;;5035486;28;20182;-65
2021/12/31 02:12:15;;;;;;;5.47;2.40;;;;;;;;;;5036839;28;20229;-64
2021/12/31 02:14:41;;;;;;;6.90;2.50;;;;;;;;;;5035227;28;20671;-66
2021/12/31 02:17:09;;;;;;;3.63;2.37;;;;;;;;;;5036299;28;20210;-64
2021/12/31 02:19:35;;;;;;;8.63;2.30;;;;;;;;;;5036841;28;20171;-65
2021/12/31 02:22:01;;;;;;;4.57;2.43;;;;;;;;;;5036484;28;20251;-65
2021/12/31 02:24:27;;;;;;;5.03;2.40;;;;;;;;;;5036395;28;20182;-65
2021/12/31 02:26:53;;;;;;;4.07;2.20;;;;;;;;;;5034912;28;20257;-65
2021/12/31 02:29:23;;;;;;;3.20;2.00;;;;;;;;;;5036220;28;20597;-65
2021/12/31 02:31:49;;;;;;;2.93;2.00;;;;;;;;;;5034958;28;20183;-65
2021/12/31 02:34:15;;;;;;;7.00;2.13;;;;;;;;;;5035101;28;20554;-66
2021/12/31 02:36:41;;;;;;;5.37;2.83;;;;;;;;;;5035027;28;20260;-65
2021/12/31 02:39:07;;;;;;;7.13;2.20;;;;;;;;;;5035878;28;20183;-64
2021/12/31 02:41:33;;;;;;;3.77;2.10;;;;;;;;;;5034870;28;20185;-65
2021/12/31 02:43:59;;;;;;;4.60;2.50;;;;;;;;;;5036234;28;20646;-65
2021/12/31 02:46:25;;;;;;;5.07;2.43;;;;;;;;;;5034439;28;20203;-66
2021/12/31 02:48:56;;;;;;;4.57;2.37;;;;;;;;;;5034718;28;20213;-65
2021/12/31 02:51:25;;;;;;;3.13;2.20;;;;;;;;;;5036089;28;20163;-65
2021/12/31 02:53:52;;;;;;;3.97;2.20;;;;;;;;;;5034847;28;20635;-65
2021/12/31 02:56:19;;;;;;;6.30;3.07;;;;;;;;;;5036077;28;20281;-65
2021/12/31 02:58:45;;;;;;;4.27;2.43;;;;;;;;;;5035933;28;20199;-65
2021/12/31 03:01:15;;;;;;;2.30;2.00;;;;;;;;;;5034608;28;20179;-68
2021/12/31 03:03:41;;;;;;;5.00;2.17;;;;;;;;;;5035625;28;20178;-66
2021/12/31 03:06:08;;;;;;;3.40;2.33;;;;;;;;;;5034370;28;20211;-65
2021/12/31 03:08:35;;;;;;;4.20;2.40;;;;;;;;;;5035585;28;20187;-65
2021/12/31 03:11:03;;;;;;;4.90;2.27;;;;;;;;;;5034266;28;20687;-65
2021/12/31 03:13:30;;;;;;;7.07;2.00;;;;;;;;;;5034109;28;20183;-65
2021/12/31 03:15:56;;;;;;;3.90;2.07;;;;;;;;;;5035143;28;20233;-65
2021/12/31 03:18:22;;;;;;;6.03;2.27;;;;;;;;;;5034180;28;20199;-65
2021/12/31 03:20:59;;;;;;;6.83;2.57;;;;;;;;;;5035449;28;20176;-65
2021/12/31 03:23:25;;;;;;;4.63;2.40;;;;;;;;;;5035289;28;20151;-65
2021/12/31 03:25:51;;;;;;;4.57;2.30;;;;;;;;;;5033929;28;20796;-66
2021/12/31 03:28:18;;;;;;;5.47;1.97;;;;;;;;;;5035537;28;20183;-65
2021/12/31 03:30:44;;;;;;;5.73;2.20;;;;;;;;;;5035421;28;20171;-66
2021/12/31 03:33:10;;;;;;;3.63;1.93;;;;;;;;;;5035461;28;20237;-65
2021/12/31 03:35:36;;;;;;;4.43;2.00;;;;;;;;;;5033738;28;20361;-66
2021/12/31 03:38:03;;;;;;;4.30;2.13;;;;;;;;;;5033946;28;20214;-66
2021/12/31 03:40:29;;;;;;;5.13;2.20;;;;;;;;;;5034838;28;20553;-66
2021/12/31 03:42:55;;;;;;;4.30;2.00;;;;;;;;;;5036670;28;20175;-66
2021/12/31 03:45:20;;;;;;;5.47;2.03;;;;;;;;;;5036664;28;20179;-66
2021/12/31 03:47:46;;;;;;;6.30;2.43;;;;;;;;;;5035110;28;20175;-66
2021/12/31 03:50:12;;;;;;;4.93;2.20;;;;;;;;;;5034911;28;20392;-66
2021/12/31 03:52:39;;;;;;;4.23;2.20;;;;;;;;;;5034990;28;20273;-65
2021/12/31 03:55:06;;;;;;;4.53;2.50;;;;;;;;;;5034845;28;20656;-65
2021/12/31 03:57:32;;;;;;;3.40;3.10;;;;;;;;;;5034539;28;20282;-65
2021/12/31 03:59:58;;;;;;;4.43;2.00;;;;;;;;;;5033343;28;20255;-66
2021/12/31 04:02:24;;;;;;;4.03;2.10;;;;;;;;;;5034772;28;20171;-65
2021/12/31 04:04:50;;;;;;;4.60;2.00;;;;;;;;;;5033191;28;20175;-66
2021/12/31 04:07:16;;;;;;;2.50;2.30;;;;;;;;;;5033215;28;20199;-66
2021/12/31 04:09:42;;;;;;;4.53;2.33;;;;;;;;;;5034463;28;20175;-65
2021/12/31 04:12:08;;;;;;;4.40;1.97;;;;;;;;;;5034330;28;20225;-66
2021/12/31 04:14:34;;;;;;;4.03;2.00;;;;;;;;;;5034449;28;20175;-66
2021/12/31 04:17:00;;;;;;;4.30;2.10;;;;;;;;;;5033276;28;20588;-65
2021/12/31 04:19:26;;;;;;;2.27;1.90;;;;;;;;;;5035152;28;20179;-65
2021/12/31 04:26:54;;;;;;;5.20;2.70;;;;;;;;;;5042889;28;20646;-61
2021/12/31 04:29:20;;;;;;;5.77;2.30;;;;;;;;;;5057635;28;20213;-61
2021/12/31 04:31:46;;;;;;;3.83;1.80;;;;;;;;;;5057543;28;20182;-61
2021/12/31 04:34:11;;;;;;;3.27;2.00;;;;;;;;;;5057552;28;20203;-61
2021/12/31 04:36:38;;;;;;;5.90;2.10;;;;;;;;;;5056707;28;20280;-61
2021/12/31 04:39:03;;;;;;;3.13;1.93;;;;;;;;;;5042120;28;20587;-61
2021/12/31 04:41:29;;;;;;;8.40;2.20;;;;;;;;;;5041025;28;20263;-62
2021/12/31 04:43:55;;;;;;;3.80;2.10;;;;;;;;;;5042466;28;20203;-62
2021/12/31 04:46:21;;;;;;;5.10;2.13;;;;;;;;;;5041897;28;20179;-62
2021/12/31 04:48:47;;;;;;;6.83;2.23;;;;;;;;;;5040788;28;20186;-62
2021/12/31 04:51:13;;;;;;;8.30;2.20;;;;;;;;;;5041275;28;20194;-62
2021/12/31 04:53:39;;;;;;;4.73;2.30;;;;;;;;;;5040492;28;20198;-63
2021/12/31 04:56:05;;;;;;;3.77;2.40;;;;;;;;;;5040145;28;20214;-63
2021/12/31 04:58:31;;;;;;;4.20;2.20;;;;;;;;;;5041037;28;20183;-64
2021/12/31 05:00:57;;;;;;;1.93;1.70;;;;;;;;;;5039770;28;20175;-64
2021/12/31 05:03:23;;;;;;;3.93;1.90;;;;;;;;;;5041138;28;20273;-62
2021/12/31 05:05:49;;;;;;;4.23;2.20;;;;;;;;;;5056771;28;20186;-63
2021/12/31 05:08:15;;;;;;;5.90;2.07;;;;;;;;;;5040733;28;20187;-63
2021/12/31 05:10:41;;;;;;;5.37;2.17;;;;;;;;;;5041442;28;20262;-62
2021/12/31 05:13:09;;;;;;;3.67;2.07;;;;;;;;;;5055712;28;20234;-63
2021/12/31 05:15:38;;;;;;;6.60;2.60;;;;;;;;;;5056557;28;20298;-63
2021/12/31 05:18:04;;;;;;;9.13;2.50;;;;;;;;;;5055361;28;20266;-62
2021/12/31 05:20:30;;;;;;;5.33;2.10;;;;;;;;;;5040285;28;20202;-63
2021/12/31 05:22:59;;;;;;;4.03;2.03;;;;;;;;;;5055515;28;20218;-63
2021/12/31 05:25:25;;;;;;;2.90;1.83;;;;;;;;;;5041020;28;20183;-63
2021/12/31 05:27:51;;;;;;;4.33;2.20;;;;;;;;;;5040795;28;20187;-62
2021/12/31 05:30:18;;;;;;;3.93;1.83;;;;;;;;;;5056017;28;20211;-62
2021/12/31 05:32:44;;;;;;;6.53;1.90;;;;;;;;;;5040033;28;20188;-63
2021/12/31 05:35:10;;;;;;;3.00;2.00;;;;;;;;;;5053861;28;20210;-62
2021/12/31 05:37:36;;;;;;;3.80;1.70;;;;;;;;;;5037794;28;20175;-63
2021/12/31 05:40:03;;;;;;;8.47;2.37;;;;;;;;;;5039104;28;20181;-62
2021/12/31 05:42:29;;;;;;;2.17;1.80;;;;;;;;;;5039587;28;20678;-63
2021/12/31 05:44:55;;;;;;;3.37;1.80;;;;;;;;;;5052547;28;20215;-63
2021/12/31 05:47:21;;;;;;;2.83;1.93;;;;;;;;;;5038328;28;20182;-62
2021/12/31 05:49:48;;;;;;;4.73;2.20;;;;;;;;;;5053739;28;20186;-63
2021/12/31 05:52:14;;;;;;;4.27;2.07;;;;;;;;;;5053257;28;20199;-63
2021/12/31 05:54:40;;;;;;;3.30;1.90;;;;;;;;;;5038198;28;20529;-63
2021/12/31 05:57:06;;;;;;;4.27;1.87;;;;;;;;;;5037894;28;20679;-62
2021/12/31 05:59:32;;;;;;;4.80;2.30;;;;;;;;;;5052024;28;20628;-63
2021/12/31 06:01:58;;;;;;;2.73;2.13;;;;;;;;;;5032639;28;20183;-63
2021/12/31 06:04:25;;;;;;;5.33;2.30;;;;;;;;;;5032720;28;20233;-63
2021/12/31 06:06:50;;;;;;;2.83;2.20;;;;;;;;;;5032843;28;20297;-63
2021/12/31 06:09:16;;;;;;;4.87;1.80;;;;;;;;;;5033262;28;20209;-63
2021/12/31 06:11:43;;;;;;;3.53;1.67;;;;;;;;;;5034378;28;20234;-62
2021/12/31 06:14:10;;;;;;;6.60;2.27;;;;;;;;;;5036715;28;20206;-63
2021/12/31 06:16:40;;;;;;;4.37;2.20;;;;;;;;;;5036558;28;20199;-63
2021/12/31 06:19:07;;;;;;;2.73;1.97;;;;;;;;;;5036492;28;20155;-62
2021/12/31 06:21:34;;;;;;;4.00;1.97;;;;;;;;;;5051772;28;20179;-63
2021/12/31 06:24:01;;;;;;;4.13;1.97;;;;;;;;;;5051862;28;20272;-63
2021/12/31 06:26:27;;;;;;;2.50;2.00;;;;;;;;;;5051870;28;20183;-62
2021/12/31 06:28:53;;;;;;;3.20;2.30;;;;;;;;;;5036465;28;20183;-63
2021/12/31 06:31:19;;;;;;;2.20;2.00;;;;;;;;;;5036268;28;20190;-63
2021/12/31 06:33:45;;;;;;;3.27;2.40;;;;;;;;;;5051801;28;20199;-63
2021/12/31 06:36:11;;;;;;;2.70;1.83;;;;;;;;;;5051601;28;20207;-63
2021/12/31 06:38:37;;;;;;;5.03;2.30;;;;;;;;;;5051500;28;20690;-62
2021/12/31 06:41:03;;;;;;;8.23;2.47;;;;;;;;;;5036290;28;20171;-63
2021/12/31 06:43:29;;;;;;;3.70;2.30;;;;;;;;;;5035876;28;20317;-63
2021/12/31 06:45:55;;;;;;;4.20;1.97;;;;;;;;;;5035913;28;20190;-62
2021/12/31 06:48:20;;;;;;;4.80;2.23;;;;;;;;;;5036412;28;20689;-63
2021/12/31 06:50:46;;;;;;;3.70;2.57;;;;;;;;;;5035960;28;20253;-63
2021/12/31 06:53:12;;;;;;;6.47;2.17;;;;;;;;;;5036376;28;20560;-63
2021/12/31 06:55:38;;;;;;;4.90;3.30;;;;;;;;;;5036395;28;20681;-63
2021/12/31 06:58:04;;;;;;;3.40;2.57;;;;;;;;;;5035774;28;20655;-63
2021/12/31 07:00:30;;;;;;;7.77;2.50;;;;;;;;;;5036243;28;20259;-63
2021/12/31 07:03:06;;;;;;;3.93;2.20;;;;;;;;;;5035600;28;20660;-62
2021/12/31 07:05:32;;;;;;;3.33;2.17;;;;;;;;;;5035583;28;20189;-62
2021/12/31 07:07:58;;;;;;;5.83;2.40;;;;;;;;;;5036258;28;20182;-63
2021/12/31 07:10:24;;;;;;;3.77;2.20;;;;;;;;;;5035605;28;20269;-63
2021/12/31 07:12:55;;;;;;;5.90;2.40;;;;;;;;;;5035554;28;20260;-62
2021/12/31 07:15:21;;;;;;;3.90;1.97;;;;;;;;;;5036485;28;20627;-63
2021/12/31 07:17:47;;;;;;;3.27;2.00;;;;;;;;;;5035844;28;20623;-62
2021/12/31 07:20:13;;;;;;;5.93;2.30;;;;;;;;;;5035695;28;20186;-63
2021/12/31 07:22:39;;;;;;;2.67;2.00;;;;;;;;;;5034665;28;20683;-63
2021/12/31 07:25:05;;;;;;;3.23;2.27;;;;;;;;;;5035310;28;20635;-63
2021/12/31 07:27:32;;;;;;;4.47;2.27;;;;;;;;;;5035397;28;20183;-63
2021/12/31 07:29:58;;;;;;;2.50;2.07;;;;;;;;;;5050580;28;20182;-63
2021/12/31 07:32:26;;;;;;;4.93;2.70;;;;;;;;;;5035275;28;20294;-63
2021/12/31 07:34:52;;;;;;;3.80;2.50;;;;;;;;;;5034840;28;20258;-63
2021/12/31 07:37:18;;;;;;;4.67;2.00;;;;;;;;;;5034751;28;20254;-63
2021/12/31 07:39:48;;;;;;;4.00;2.03;;;;;;;;;;5050117;28;20206;-63
2021/12/31 07:42:14;;;;;;;2.67;2.13;;;;;;;;;;5049941;28;20184;-63
2021/12/31 07:44:41;;;;;;;4.47;2.33;;;;;;;;;;5034887;28;20182;-63
2021/12/31 07:47:07;;;;;;;4.27;2.20;;;;;;;;;;5034611;28;20182;-63
2021/12/31 07:49:33;;;;;;;4.90;1.87;;;;;;;;;;5034846;28;20262;-63
2021/12/31 07:51:59;;;;;;;3.70;2.17;;;;;;;;;;5034408;28;20655;-63
2021/12/31 07:54:25;;;;;;;6.83;2.40;;;;;;;;;;5035042;28;20616;-63
2021/12/31 07:56:51;;;;;;;3.73;2.17;;;;;;;;;;5034444;28;20199;-63
2021/12/31 07:59:17;;;;;;;3.43;2.10;;;;;;;;;;5034696;28;20645;-63
2021/12/31 08:01:42;;;;;;;2.37;2.10;;;;;;;;;;5034334;28;20693;-63
2021/12/31 08:04:08;;;;;;;4.93;2.10;;;;;;;;;;5049530;28;20782;-63
2021/12/31 08:06:34;;;;;;;8.33;2.83;;;;;;;;;;5049542;28;20183;-63
2021/12/31 08:09:00;;;;;;;4.03;1.90;;;;;;;;;;5049548;28;20234;-63
2021/12/31 08:11:26;;;;;;;3.57;2.07;;;;;;;;;;5034156;28;20183;-63
2021/12/31 08:13:52;;;;;;;3.90;2.23;;;;;;;;;;5034024;28;20199;-63
2021/12/31 08:16:18;;;;;;;3.93;2.40;;;;;;;;;;5049421;28;20244;-64
2021/12/31 08:18:44;;;;;;;2.73;2.27;;;;;;;;;;5049358;28;20334;-63
2021/12/31 08:21:10;;;;;;;3.93;2.53;;;;;;;;;;5034001;28;20178;-63
2021/12/31 08:23:36;;;;;;;4.00;2.07;;;;;;;;;;5049244;28;20246;-62
2021/12/31 08:26:02;;;;;;;4.60;2.40;;;;;;;;;;5033871;28;20258;-63
2021/12/31 08:28:28;;;;;;;2.67;2.10;;;;;;;;;;5049180;28;20175;-63
2021/12/31 08:30:55;;;;;;;3.13;2.00;;;;;;;;;;5033800;28;20183;-63
2021/12/31 08:33:21;;;;;;;3.83;2.10;;;;;;;;;;5033721;28;20575;-63
2021/12/31 08:35:47;;;;;;;4.20;2.87;;;;;;;;;;5049035;28;20203;-62
2021/12/31 08:38:13;;;;;;;3.77;2.20;;;;;;;;;;5033808;28;20207;-63
2021/12/31 08:40:39;;;;;;;3.53;2.00;;;;;;;;;;5048965;28;20179;-65
2021/12/31 08:43:05;;;;;;;5.90;2.97;;;;;;;;;;5033688;28;20233;-62
2021/12/31 08:45:32;;;;;;;2.33;2.00;;;;;;;;;;5033608;28;20647;-63
2021/12/31 08:47:58;;;;;;;3.30;2.40;;;;;;;;;;5033793;28;20582;-63
2021/12/31 08:50:24;;;;;;;6.20;2.70;;;;;;;;;;5033695;28;20175;-63
2021/12/31 08:52:51;;;;;;;4.87;2.20;;;;;;;;;;5033498;28;20195;-63
2021/12/31 08:55:17;;;;;;;4.13;2.27;;;;;;;;;;5033592;28;20252;-62
2021/12/31 08:57:43;;;;;;;5.07;2.33;;;;;;;;;;5048944;28;20191;-63
2021/12/31 09:00:10;;;;;;;4.80;2.90;;;;;;;;;;5033302;28;20171;-63
2021/12/31 09:02:38;;;;;;;8.20;4.50;;;;;;;;;;5033210;28;20223;-63
2021/12/31 09:05:04;;;;;;;6.70;4.43;;;;;;;;;;5033523;28;20643;-63
2021/12/31 09:07:30;;;;;;;7.47;5.33;;;;;;;;;;5032976;28;20553;-62
2021/12/31 09:09:56;;;;;;;11.60;7.93;;;;;;;;;;5032971;28;20189;-63
2021/12/31 09:12:22;;;;;;;16.43;11.23;;;;;;;;;;5033527;28;20195;-63
2021/12/31 09:14:48;;;;;;;6.33;5.03;;;;;;;;;;5033668;28;20666;-63
2021/12/31 09:17:14;;;;;;;8.80;6.53;;;;;;;;;;5033074;28;20734;-63
2021/12/31 09:19:40;;;;;;;11.53;8.90;;;;;;;;;;5033601;28;20513;-63
2021/12/31 09:22:06;;;;;;;10.70;7.03;;;;;;;;;;5032897;28;20214;-63
2021/12/31 09:24:32;;;;;;;10.73;9.00;;;;;;;;;;5048468;28;20179;-62
2021/12/31 09:26:58;;;;;;;19.63;14.13;;;;;;;;;;5048487;28;20178;-63
2021/12/31 09:29:24;;;;;;;12.77;8.63;;;;;;;;;;5033170;28;20297;-64
2021/12/31 09:31:51;;;;;;;9.97;7.23;;;;;;;;;;5033194;28;20179;-63
2021/12/31 09:34:17;;;;;;;10.73;7.77;;;;;;;;;;5033104;28;20198;-63
2021/12/31 09:36:43;;;;;;;9.90;6.80;;;;;;;;;;5048437;28;20211;-63
2021/12/31 09:39:09;;;;;;;9.60;5.20;;;;;;;;;;5048233;28;20183;-64
2021/12/31 09:41:35;;;;;;;6.37;4.93;;;;;;;;;;5032862;28;20175;-63
2021/12/31 09:44:01;;;;;;;4.10;2.67;;;;;;;;;;5048136;28;20206;-64
2021/12/31 09:46:27;;;;;;;5.80;2.77;;;;;;;;;;5033864;28;20262;-63
2021/12/31 09:48:53;;;;;;;4.37;2.80;;;;;;;;;;5036866;28;20278;-63
2021/12/31 09:51:19;;;;;;;4.37;2.90;;;;;;;;;;5052118;28;20237;-63
2021/12/31 09:53:46;;;;;;;3.60;2.80;;;;;;;;;;5036560;28;20644;-63
2021/12/31 09:56:13;;;;;;;5.03;2.57;;;;;;;;;;5051828;28;20207;-64
2021/12/31 09:58:40;;;;;;;2.90;2.50;;;;;;;;;;5051985;28;20183;-65
2021/12/31 10:01:08;;;;;;;4.17;2.43;;;;;;;;;;5036572;28;20175;-63
2021/12/31 10:03:35;;;;;;;3.50;2.23;;;;;;;;;;5036667;28;20568;-63
2021/12/31 10:06:08;;;;;;;3.03;2.50;;;;;;;;;;5036703;28;20186;-63
2021/12/31 10:08:44;;;;;;;2.90;2.60;;;;;;;;;;5036619;28;20183;-63
2021/12/31 10:11:23;;;;;;;5.47;3.00;;;;;;;;;;5036295;28;20215;-63
2021/12/31 10:13:52;;;;;;;5.00;2.60;;;;;;;;;;5036187;28;20238;-63
2021/12/31 10:16:22;;;;;;;3.27;2.63;;;;;;;;;;5036198;28;20655;-63
2021/12/31 10:18:49;;;;;;;4.90;2.33;;;;;;;;;;5036167;28;20254;-63
2021/12/31 10:21:19;;;;;;;3.93;3.17;;;;;;;;;;5036230;28;20175;-64
2021/12/31 10:23:45;;;;;;;2.90;2.40;;;;;;;;;;5035949;28;20265;-65
2021/12/31 10:26:13;;;;;;;2.83;2.27;;;;;;;;;;5051431;28;20187;-63
2021/12/31 10:28:52;;;;;;;2.80;2.40;;;;;;;;;;5036177;28;20703;-63
2021/12/31 10:31:19;;;;;;;3.37;2.17;;;;;;;;;;5051295;28;20187;-63
2021/12/31 10:33:45;;;;;;;3.03;2.50;;;;;;;;;;5036275;28;20274;-63
2021/12/31 10:36:32;;;;;;;2.57;2.30;;;;;;;;;;5035877;28;20210;-63
2021/12/31 10:38:59;;;;;;;4.13;2.37;;;;;;;;;;5026121;28;20670;-63
2021/12/31 10:41:25;;;;;;;3.23;2.13;;;;;;;;;;5036300;28;20690;-63
2021/12/31 10:43:59;;;;;;;3.50;2.50;;;;;;;;;;5051094;28;20195;-63
2021/12/31 10:46:25;;;;;;;3.63;2.43;;;;;;;;;;5035740;28;20179;-62
2021/12/31 10:48:54;;;;;;;2.90;2.70;;;;;;;;;;5035997;28;20229;-63
2021/12/31 10:51:35;;;;;;;2.20;2.00;;;;;;;;;;5035667;28;20185;-63
2021/12/31 10:54:29;;;;;;;2.40;1.97;;;;;;;;;;5051642;28;20203;-63
2021/12/31 10:56:56;;;;;;;3.23;1.93;;;;;;;;;;5035608;28;20202;-63
2021/12/31 10:59:22;;;;;;;4.23;2.00;;;;;;;;;;5034553;28;20171;-63
2021/12/31 11:01:48;;;;;;;2.87;2.30;;;;;;;;;;5051079;28;20201;-63
2021/12/31 11:04:14;;;;;;;3.33;2.40;;;;;;;;;;5035170;28;20195;-63
2021/12/31 11:06:44;;;;;;;3.87;2.30;;;;;;;;;;5035379;28;20595;-63
2021/12/31 11:09:13;;;;;;;2.30;2.10;;;;;;;;;;5050602;28;20663;-63
2021/12/31 11:11:42;;;;;;;4.07;2.10;;;;;;;;;;5050560;28;20270;-63
2021/12/31 11:14:08;;;;;;;3.33;2.47;;;;;;;;;;5035183;28;20195;-63
2021/12/31 11:16:38;;;;;;;3.13;2.40;;;;;;;;;;5035074;28;20199;-63
2021/12/31 11:19:04;;;;;;;14.50;5.60;;;;;;;;;;5035098;28;20171;-63
2021/12/31 11:21:30;;;;;;;3.77;2.63;;;;;;;;;;5035120;28;20198;-63
2021/12/31 11:24:16;;;;;;;3.47;3.17;;;;;;;;;;5050243;28;20264;-63
2021/12/31 11:26:42;;;;;;;3.83;2.47;;;;;;;;;;5050420;28;20197;-63
2021/12/31 11:29:14;;;;;;;3.00;2.60;;;;;;;;;;5035717;28;20643;-62
2021/12/31 11:31:42;;;;;;;6.47;3.67;;;;;;;;;;5035266;28;20202;-62
2021/12/31 11:34:10;;;;;;;5.37;2.43;;;;;;;;;;5050152;28;20210;-63
2021/12/31 11:36:51;;;;;;;2.30;2.10;;;;;;;;;;5034685;28;20618;-63
2021/12/31 11:39:21;;;;;;;3.23;2.70;;;;;;;;;;5034806;28;20289;-63
2021/12/31 11:41:48;;;;;;;2.13;1.93;;;;;;;;;;5050865;28;20200;-63
2021/12/31 11:44:15;;;;;;;2.80;2.10;;;;;;;;;;5034583;28;20286;-63
2021/12/31 11:46:42;;;;;;;2.30;2.03;;;;;;;;;;5049919;28;20191;-63
2021/12/31 11:49:19;;;;;;;4.80;2.17;;;;;;;;;;5049969;28;20190;-63
2021/12/31 11:51:59;;;;;;;2.90;2.60;;;;;;;;;;5049859;28;20175;-63
2021/12/31 11:54:25;;;;;;;3.03;1.80;;;;;;;;;;5049765;28;20193;-63
2021/12/31 11:56:55;;;;;;;2.67;2.10;;;;;;;;;;5034541;28;20317;-63
2021/12/31 11:59:21;;;;;;;3.17;2.30;;;;;;;;;;5034382;28;20182;-63
2021/12/31 12:01:50;;;;;;;2.50;2.30;;;;;;;;;;5034294;28;20182;-64
2021/12/31 12:04:19;;;;;;;2.57;2.37;;;;;;;;;;5049531;28;20538;-63
2021/12/31 12:07:01;;;;;;;1.93;1.83;;;;;;;;;;5034144;28;20569;-63
2021/12/31 12:09:47;;;;;;;3.40;2.13;;;;;;;;;;5049233;28;20830;-63
2021/12/31 12:12:26;;;;;;;3.00;2.70;;;;;;;;;;5003759;28;20225;-62
2021/12/31 12:14:53;;;;;;;3.03;2.70;;;;;;;;;;5034080;28;20206;-63
2021/12/31 12:17:28;;;;;;;5.20;2.37;;;;;;;;;;5034023;28;20199;-63
2021/12/31 12:19:57;;;;;;;4.63;2.50;;;;;;;;;;5033927;28;20181;-63
2021/12/31 12:22:31;;;;;;;2.47;2.23;;;;;;;;;;5049039;28;20238;-63
2021/12/31 12:24:59;;;;;;;2.83;2.63;;;;;;;;;;5049096;28;20210;-63
2021/12/31 12:27:25;;;;;;;2.60;2.33;;;;;;;;;;5034171;28;20179;-63
2021/12/31 12:29:52;;;;;;;4.80;2.73;;;;;;;;;;5034469;28;20258;-63
2021/12/31 12:32:30;;;;;;;3.97;2.80;;;;;;;;;;5049012;28;20282;-63
2021/12/31 12:34:56;;;;;;;3.03;2.43;;;;;;;;;;5034217;28;20167;-63
2021/12/31 12:37:31;;;;;;;3.23;2.47;;;;;;;;;;5033791;28;20218;-64
2021/12/31 12:40:01;;;;;;;3.43;2.53;;;;;;;;;;5033531;28;20221;-63
2021/12/31 12:42:27;;;;;;;2.60;2.30;;;;;;;;;;5033560;28;20203;-66
2021/12/31 12:44:59;;;;;;;5.33;2.77;;;;;;;;;;5033552;28;20182;-63
2021/12/31 12:47:25;;;;;;;4.17;3.17;;;;;;;;;;5033390;28;20202;-64
2021/12/31 12:49:55;;;;;;;2.60;2.40;;;;;;;;;;5033535;28;20222;-62
2021/12/31 12:52:21;;;;;;;2.30;2.10;;;;;;;;;;5033506;28;20682;-63
2021/12/31 12:54:47;;;;;;;5.33;2.50;;;;;;;;;;5048860;22;20226;-66
2021/12/31 12:57:23;;;;;;;4.87;2.10;;;;;;;;;;5048526;28;20332;-66
2021/12/31 12:59:49;;;;;;;4.60;2.50;;;;;;;;;;5033373;28;20155;-66
2021/12/31 13:02:16;;;;;;;1.97;1.87;;;;;;;;;;5048729;28;20186;-66
2021/12/31 13:04:42;;;;;;;3.13;2.43;;;;;;;;;;5033333;28;20277;-66
2021/12/31 13:07:10;;;;;;;4.57;2.30;;;;;;;;;;5033463;28;20655;-66
2021/12/31 13:09:36;;;;;;;2.87;2.37;;;;;;;;;;5033741;28;20548;-65
2021/12/31 13:12:04;;;;;;;3.63;2.77;;;;;;;;;;5032050;28;20267;-66
2021/12/31 13:14:35;;;;;;;4.83;2.97;;;;;;;;;;5033216;28;20195;-65
2021/12/31 13:17:02;;;;;;;2.97;2.10;;;;;;;;;;5033248;28;20245;-66
2021/12/31 13:19:28;;;;;;;3.07;2.50;;;;;;;;;;5032888;28;20172;-66
2021/12/31 13:21:59;;;;;;;3.17;2.20;;;;;;;;;;5030941;28;20175;-66
2021/12/31 13:24:26;;;;;;;3.63;2.17;;;;;;;;;;5033124;28;20194;-66
2021/12/31 13:26:53;;;;;;;2.20;2.00;;;;;;;;;;5033049;28;20175;-65
2021/12/31 13:29:29;;;;;;;2.67;2.47;;;;;;;;;;5031753;28;20209;-66
2021/12/31 13:32:03;;;;;;;5.63;2.40;;;;;;;;;;5033212;28;20174;-66
2021/12/31 13:34:38;;;;;;;3.47;2.17;;;;;;;;;;5033512;28;20202;-66
2021/12/31 13:37:04;;;;;;;6.20;2.40;;;;;;;;;;5032889;28;20202;-65
2021/12/31 13:39:39;;;;;;;2.87;2.30;;;;;;;;;;5033342;28;20226;-66
2021/12/31 13:42:09;;;;;;;4.27;2.10;;;;;;;;;;5033077;28;20155;-65
2021/12/31 13:44:37;;;;;;;2.43;1.97;;;;;;;;;;5033126;28;20210;-66
2021/12/31 13:47:05;;;;;;;3.23;2.53;;;;;;;;;;5031697;28;20190;-66
2021/12/31 13:49:32;;;;;;;5.23;2.40;;;;;;;;;;5031659;28;20214;-66
2021/12/31 13:51:58;;;;;;;2.20;2.00;;;;;;;;;;5032957;28;20251;-65
2021/12/31 13:54:38;;;;;;;3.40;2.30;;;;;;;;;;5033794;28;20206;-66
2021/12/31 13:57:05;;;;;;;2.47;1.93;;;;;;;;;;5032214;28;20234;-66
2021/12/31 13:59:31;;;;;;;2.80;2.17;;;;;;;;;;5032099;28;20191;-66
2021/12/31 14:02:03;;;;;;;2.87;2.20;;;;;;;;;;5031426;28;20278;-66
2021/12/31 14:04:29;;;;;;;6.00;2.80;;;;;;;;;;5031277;28;20230;-66
2021/12/31 14:07:01;;;;;;;2.47;2.27;;;;;;;;;;5031094;28;20218;-66
2021/12/31 14:09:26;;;;;;;3.27;2.60;;;;;;;;;;5031295;28;20266;-67
2021/12/31 14:11:53;;;;;;;2.63;2.43;;;;;;;;;;5032457;28;20206;-66
2021/12/31 14:14:19;;;;;;;6.27;4.50;;;;;;;;;;5031287;28;20203;-66
2021/12/31 14:16:45;;;;;;;14.87;9.57;;;;;;;;;;5032705;28;20203;-66
2021/12/31 14:19:11;;;;;;;14.40;10.67;;;;;;;;;;5032468;28;20639;-66
2021/12/31 14:21:37;;;;;;;17.47;11.50;;;;;;;;;;5031244;28;20580;-66
2021/12/31 14:24:03;;;;;;;5.63;2.97;;;;;;;;;;5032627;28;20175;-66
2021/12/31 14:26:29;;;;;;;5.70;4.03;;;;;;;;;;5031105;28;20183;-66
2021/12/31 14:28:55;;;;;;;4.83;3.33;;;;;;;;;;5032422;28;20322;-67
2021/12/31 14:31:22;;;;;;;3.90;2.63;;;;;;;;;;5032286;28;20183;-66
2021/12/31 14:33:48;;;;;;;7.63;2.83;;;;;;;;;;5034012;28;20179;-66
2021/12/31 14:36:14;;;;;;;4.10;2.57;;;;;;;;;;5035622;28;20265;-66
2021/12/31 14:38:41;;;;;;;5.17;2.77;;;;;;;;;;5035811;28;20229;-66
2021/12/31 14:41:21;;;;;;;4.37;3.07;;;;;;;;;;5035715;28;20198;-66
2021/12/31 14:43:48;;;;;;;2.80;2.53;;;;;;;;;;5036134;28;20151;-66
2021/12/31 14:46:14;;;;;;;3.87;2.50;;;;;;;;;;5035793;28;20245;-67
2021/12/31 14:48:39;;;;;;;3.03;2.60;;;;;;;;;;5035072;28;20183;-65
2021/12/31 14:51:06;;;;;;;5.20;2.53;;;;;;;;;;5035472;28;20690;-65
2021/12/31 14:53:32;;;;;;;15.23;7.53;;;;;;;;;;5033980;28;20191;-67